createdAt,value
2022-12-08T00:00:09.568Z,9.30
2022-12-08T00:02:44.391Z,8.10
2022-12-08T00:05:30.684Z,8.90
2022-12-08T00:08:16.874Z,10.77
2022-12-08T00:10:49.329Z,10.75
2022-12-08T00:13:18.892Z,19.35
2022-12-08T00:15:49.190Z,13.75
2022-12-08T00:18:18.084Z,13.85
2022-12-08T00:20:46.974Z,9.20
2022-12-08T00:23:15.872Z,11.77
2022-12-08T00:25:44.762Z,8.90
2022-12-08T00:28:13.714Z,11.15
2022-12-08T00:30:42.886Z,10.27
2022-12-08T00:33:13.231Z,7.90
2022-12-08T00:35:43.448Z,8.98
2022-12-08T00:38:12.411Z,9.48
2022-12-08T00:40:45.482Z,10.82
2022-12-08T00:43:15.001Z,10.45
2022-12-08T00:45:44.646Z,8.55
2022-12-08T00:48:14.972Z,11.45
2022-12-08T00:50:44.032Z,10.80
2022-12-08T00:53:12.921Z,10.40
2022-12-08T00:55:41.821Z,8.95
2022-12-08T00:58:10.725Z,10.13
2022-12-08T01:00:42.392Z,12.55
2022-12-08T01:03:11.492Z,9.82
2022-12-08T01:05:41.811Z,6.78
2022-12-08T01:08:10.699Z,8.13
2022-12-08T01:10:40.087Z,8.35
2022-12-08T01:13:08.972Z,9.15
2022-12-08T01:15:38.518Z,9.93
2022-12-08T01:18:07.429Z,7.25
2022-12-08T01:20:36.363Z,8.60
2022-12-08T01:23:06.610Z,10.00
2022-12-08T01:25:35.910Z,9.20
2022-12-08T01:28:05.035Z,9.30
2022-12-08T01:30:33.977Z,10.18
2022-12-08T01:33:03.352Z,12.48
2022-12-08T01:35:32.377Z,12.32
2022-12-08T01:38:02.028Z,12.25
2022-12-08T01:40:32.308Z,10.75
2022-12-08T01:43:01.185Z,11.18
2022-12-08T01:45:32.606Z,9.05
2022-12-08T01:48:06.089Z,8.43
2022-12-08T01:50:36.411Z,7.25
2022-12-08T01:53:12.126Z,7.70
2022-12-08T01:55:44.962Z,8.60
2022-12-08T01:58:18.590Z,6.55
2022-12-08T02:00:47.595Z,6.97
2022-12-08T02:03:23.408Z,8.38
2022-12-08T02:05:54.232Z,8.45
2022-12-08T02:08:24.709Z,7.68
2022-12-08T02:10:55.077Z,8.88
2022-12-08T02:13:25.196Z,9.65
2022-12-08T02:16:05.057Z,9.30
2022-12-08T02:19:07.986Z,8.38
2022-12-08T02:21:47.941Z,8.82
2022-12-08T02:24:23.902Z,9.30
2022-12-08T02:27:17.789Z,8.93
2022-12-08T02:30:08.019Z,7.18
2022-12-08T02:33:12.229Z,8.18
2022-12-08T02:35:50.302Z,8.77
2022-12-08T02:38:31.243Z,7.82
2022-12-08T02:41:08.287Z,8.43
2022-12-08T02:43:43.717Z,9.10
2022-12-08T02:46:19.874Z,8.00
2022-12-08T02:48:49.322Z,8.20
2022-12-08T02:51:19.628Z,8.80
2022-12-08T02:53:49.666Z,10.40
2022-12-08T02:56:47.577Z,11.10
2022-12-08T02:59:28.444Z,10.05
2022-12-08T03:02:11.119Z,15.35
2022-12-08T03:04:47.236Z,10.27
2022-12-08T03:07:24.817Z,8.57
2022-12-08T03:09:58.233Z,12.85
2022-12-08T03:12:32.216Z,10.65
2022-12-08T03:15:08.397Z,8.80
2022-12-08T03:17:39.710Z,9.65
2022-12-08T03:20:12.816Z,11.45
2022-12-08T03:22:45.463Z,11.02
2022-12-08T03:25:16.643Z,11.05
2022-12-08T03:27:45.888Z,11.40
2022-12-08T03:30:16.250Z,12.27
2022-12-08T03:32:49.700Z,13.32
2022-12-08T03:35:23.860Z,15.00
2022-12-08T03:38:03.407Z,18.27
2022-12-08T03:40:32.376Z,13.90
2022-12-08T03:43:02.048Z,10.77
2022-12-08T03:45:31.150Z,13.90
2022-12-08T03:48:00.085Z,12.15
2022-12-08T03:50:28.988Z,11.95
2022-12-08T03:52:59.337Z,11.38
2022-12-08T03:55:28.216Z,11.45
2022-12-08T03:57:57.132Z,11.63
2022-12-08T04:00:26.273Z,14.15
2022-12-08T04:02:55.544Z,11.55
2022-12-08T04:05:24.531Z,10.82
2022-12-08T04:07:53.484Z,11.93
2022-12-08T04:10:23.888Z,9.40
2022-12-08T04:12:53.277Z,9.77
2022-12-08T04:15:22.281Z,9.50
2022-12-08T04:17:51.882Z,14.00
2022-12-08T04:20:20.763Z,27.25
2022-12-08T04:22:49.620Z,15.65
2022-12-08T04:25:18.644Z,14.10
2022-12-08T04:27:48.908Z,10.25
2022-12-08T04:30:18.093Z,9.30
2022-12-08T04:32:47.660Z,8.48
2022-12-08T04:35:16.790Z,8.90
2022-12-08T04:37:45.676Z,8.90
2022-12-08T04:40:15.574Z,11.48
2022-12-08T04:42:45.171Z,8.10
2022-12-08T04:45:15.708Z,7.70
2022-12-08T04:47:44.563Z,6.65
2022-12-08T04:50:13.503Z,7.00
2022-12-08T04:52:42.486Z,7.60
2022-12-08T04:55:11.545Z,7.18
2022-12-08T04:57:40.444Z,7.68
2022-12-08T05:00:10.561Z,7.28
2022-12-08T05:02:41.374Z,7.70
2022-12-08T05:05:10.659Z,10.02
2022-12-08T05:07:39.732Z,8.07
2022-12-08T05:10:09.913Z,9.45
2022-12-08T05:12:38.849Z,8.07
2022-12-08T05:15:09.031Z,8.68
2022-12-08T05:17:38.003Z,6.03
2022-12-08T05:20:09.823Z,6.78
2022-12-08T05:22:39.229Z,6.15
2022-12-08T05:25:08.827Z,5.85
2022-12-08T05:27:38.317Z,11.25
2022-12-08T05:30:08.487Z,13.38
2022-12-08T05:32:37.352Z,7.97
2022-12-08T05:35:09.012Z,8.45
2022-12-08T05:37:38.044Z,6.88
2022-12-08T05:40:08.283Z,6.68
2022-12-08T05:42:37.207Z,8.43
2022-12-08T05:45:07.071Z,8.15
2022-12-08T05:47:36.393Z,8.82
2022-12-08T05:50:06.956Z,8.52
2022-12-08T05:52:37.543Z,6.85
2022-12-08T05:55:07.128Z,8.15
2022-12-08T05:57:36.029Z,13.82
2022-12-08T06:00:05.623Z,10.23
2022-12-08T06:02:41.190Z,8.82
2022-12-08T06:05:10.545Z,7.95
2022-12-08T06:07:40.977Z,8.95
2022-12-08T06:10:10.606Z,9.65
2022-12-08T06:12:40.425Z,10.88
2022-12-08T06:15:09.877Z,12.65
2022-12-08T06:17:38.860Z,15.15
2022-12-08T06:20:09.140Z,15.63
2022-12-08T06:22:38.618Z,23.45
2022-12-08T06:25:10.265Z,15.00
2022-12-08T06:27:39.941Z,16.48
2022-12-08T06:30:09.874Z,22.10
2022-12-08T06:32:39.059Z,17.45
2022-12-08T06:35:08.694Z,12.13
2022-12-08T06:37:37.651Z,11.63
2022-12-08T06:40:10.225Z,12.48
2022-12-08T06:42:45.171Z,14.02
2022-12-08T06:47:44.536Z,15.10
2022-12-08T06:50:15.414Z,15.88
2022-12-08T06:52:55.934Z,13.15
2022-12-08T06:58:18.548Z,8.15
2022-12-08T07:00:47.651Z,9.18
2022-12-08T07:03:16.681Z,11.00
2022-12-08T07:05:45.568Z,14.43
2022-12-08T07:08:14.599Z,13.60
2022-12-08T07:10:45.440Z,9.35
2022-12-08T07:13:14.361Z,10.38
2022-12-08T07:15:43.306Z,7.25
2022-12-08T07:18:12.194Z,5.70
2022-12-08T07:20:41.118Z,6.65
2022-12-08T07:23:10.158Z,7.72
2022-12-08T07:25:39.082Z,7.93
2022-12-08T07:28:12.890Z,7.53
2022-12-08T07:30:42.085Z,9.95
2022-12-08T07:33:11.107Z,8.85
2022-12-08T07:35:42.802Z,8.95
2022-12-08T07:38:14.032Z,10.75
2022-12-08T07:40:42.974Z,12.05
2022-12-08T07:43:13.292Z,11.88
2022-12-08T07:45:42.573Z,11.80
2022-12-08T07:48:11.545Z,13.10
2022-12-08T07:50:40.784Z,13.75
2022-12-08T07:53:27.642Z,15.61
2022-12-08T07:55:56.600Z,14.93
2022-12-08T07:58:27.637Z,13.95
2022-12-08T08:00:56.675Z,17.50
2022-12-08T08:03:25.801Z,16.08
2022-12-08T08:05:54.680Z,17.30
2022-12-08T08:08:23.606Z,15.20
2022-12-08T08:10:53.035Z,19.55
2022-12-08T08:13:21.977Z,19.02
2022-12-08T08:15:52.345Z,18.80
2022-12-08T08:18:21.338Z,18.52
2022-12-08T08:20:51.015Z,16.35
2022-12-08T08:23:19.908Z,10.45
2022-12-08T08:25:48.822Z,10.88
2022-12-08T08:28:17.735Z,10.73
2022-12-08T08:30:47.254Z,7.63
2022-12-08T08:33:17.626Z,7.55
2022-12-08T08:35:46.593Z,5.80
2022-12-08T08:38:15.622Z,5.28
2022-12-08T08:40:44.546Z,4.57
2022-12-08T08:43:34.305Z,5.65
2022-12-08T08:46:09.047Z,5.57
2022-12-08T08:48:39.462Z,5.15
2022-12-08T08:51:11.203Z,5.43
2022-12-08T08:53:40.474Z,6.50
2022-12-08T08:56:10.978Z,5.47
2022-12-08T08:58:39.903Z,5.97
2022-12-08T09:01:08.855Z,6.40
2022-12-08T09:03:39.139Z,9.15
2022-12-08T09:06:08.327Z,10.75
2022-12-08T09:08:37.759Z,9.68
2022-12-08T09:11:07.105Z,7.95
2022-12-08T09:13:36.813Z,10.00
2022-12-08T09:16:07.473Z,11.20
2022-12-08T09:18:36.723Z,7.93
2022-12-08T09:21:08.430Z,8.02
2022-12-08T09:23:37.721Z,6.68
2022-12-08T09:26:06.954Z,8.00
2022-12-08T09:28:36.297Z,7.25
2022-12-08T09:31:05.410Z,7.53
2022-12-08T09:33:36.049Z,7.68
2022-12-08T09:36:07.068Z,8.02
2022-12-08T09:38:36.094Z,7.22
2022-12-08T09:41:11.829Z,8.10
2022-12-08T09:43:52.272Z,7.10
2022-12-08T09:46:22.193Z,6.53
2022-12-08T09:48:56.151Z,7.95
2022-12-08T09:51:28.702Z,10.27
2022-12-08T09:54:03.276Z,10.27
2022-12-08T09:56:36.157Z,9.38
2022-12-08T09:59:16.714Z,8.40
2022-12-08T10:01:45.723Z,8.85
2022-12-08T10:04:21.378Z,9.57
2022-12-08T10:06:59.851Z,8.73
2022-12-08T10:09:35.805Z,9.57
2022-12-08T10:12:12.525Z,6.65
2022-12-08T10:14:44.373Z,7.65
2022-12-08T10:17:21.161Z,6.28
2022-12-08T10:19:52.212Z,5.55
2022-12-08T10:22:26.023Z,5.40
2022-12-08T10:25:01.344Z,6.10
2022-12-08T10:27:30.762Z,4.60
2022-12-08T10:29:59.862Z,5.75
2022-12-08T10:32:35.966Z,5.82
2022-12-08T10:35:08.409Z,5.32
2022-12-08T10:37:38.798Z,5.63
2022-12-08T10:40:12.702Z,5.40
2022-12-08T10:42:44.696Z,4.95
2022-12-08T10:45:26.270Z,3.25
2022-12-08T10:48:02.350Z,4.07
2022-12-08T10:50:36.090Z,5.78
2022-12-08T10:53:13.885Z,3.78
2022-12-08T10:55:45.900Z,3.80
2022-12-08T10:58:31.445Z,4.78
2022-12-08T11:01:03.961Z,5.05
2022-12-08T11:03:36.735Z,4.35
2022-12-08T11:06:14.803Z,4.97
2022-12-08T11:08:54.099Z,4.88
2022-12-08T11:11:37.937Z,4.15
2022-12-08T11:14:09.476Z,4.38
2022-12-08T11:16:42.955Z,3.70
2022-12-08T11:19:18.201Z,5.13
2022-12-08T11:21:47.521Z,4.40
2022-12-08T11:24:28.585Z,4.07
2022-12-08T11:27:02.594Z,3.33
2022-12-08T11:29:34.013Z,4.47
2022-12-08T11:32:05.700Z,4.72
2022-12-08T11:34:38.636Z,4.75
2022-12-08T11:37:16.386Z,4.35
2022-12-08T11:39:52.421Z,5.38
2022-12-08T11:42:26.335Z,3.63
2022-12-08T11:44:59.037Z,3.78
2022-12-08T11:47:32.607Z,3.80
2022-12-08T11:50:18.123Z,5.18
2022-12-08T11:52:50.911Z,4.00
2022-12-08T11:55:37.163Z,4.05
2022-12-08T11:58:17.751Z,3.20
2022-12-08T12:00:46.753Z,4.75
2022-12-08T12:03:24.729Z,4.75
2022-12-08T12:06:18.502Z,4.90
2022-12-08T12:09:11.187Z,6.43
2022-12-08T12:12:08.805Z,5.15
2022-12-08T12:14:56.284Z,8.60
2022-12-08T12:17:37.033Z,6.00
2022-12-08T12:20:15.381Z,7.53
2022-12-08T12:22:47.621Z,7.88
2022-12-08T12:25:25.254Z,5.90
2022-12-08T12:28:01.089Z,6.80
2022-12-08T12:30:36.792Z,6.82
2022-12-08T12:33:13.511Z,6.18
2022-12-08T12:35:45.237Z,7.75
2022-12-08T12:38:40.728Z,7.30
2022-12-08T12:41:11.394Z,5.50
2022-12-08T12:43:41.926Z,5.70
2022-12-08T12:46:40.123Z,4.60
2022-12-08T12:49:48.734Z,5.03
2022-12-08T12:52:45.175Z,4.10
2022-12-08T12:55:52.154Z,5.50
2022-12-08T12:58:39.168Z,3.88
2022-12-08T13:01:44.269Z,4.68
2022-12-08T13:04:14.822Z,3.70
2022-12-08T13:06:47.003Z,4.78
2022-12-08T13:09:24.757Z,4.78
2022-12-08T13:11:56.553Z,3.42
2022-12-08T13:14:37.400Z,5.57
2022-12-08T13:17:12.574Z,3.97
2022-12-08T13:22:51.536Z,4.30
2022-12-08T13:25:46.774Z,3.25
2022-12-08T13:28:24.390Z,5.30
2022-12-08T13:30:54.504Z,4.28
2022-12-08T13:33:27.235Z,4.13
2022-12-08T13:36:12.764Z,5.88
2022-12-08T13:38:46.266Z,12.57
2022-12-08T13:41:20.127Z,4.30
2022-12-08T13:44:50.379Z,4.60
2022-12-08T13:53:49.491Z,4.10
2022-12-08T13:58:25.541Z,4.78
2022-12-08T14:01:07.713Z,5.78
2022-12-08T14:04:11.694Z,5.85
2022-12-08T14:06:37.934Z,4.40
2022-12-08T14:09:15.880Z,4.40
2022-12-08T14:11:48.364Z,3.97
2022-12-08T14:14:45.788Z,3.35
2022-12-08T14:17:13.548Z,4.93
2022-12-08T14:19:45.849Z,3.65
2022-12-08T14:22:16.911Z,4.70
2022-12-08T14:24:48.067Z,4.60
2022-12-08T14:27:20.283Z,6.38
2022-12-08T14:29:52.253Z,4.85
2022-12-08T14:32:28.295Z,6.80
2022-12-08T14:35:00.492Z,5.10
2022-12-08T14:37:33.801Z,13.13
2022-12-08T14:40:07.472Z,6.07
2022-12-08T14:42:44.897Z,6.25
2022-12-08T14:45:16.165Z,6.07
2022-12-08T14:47:45.760Z,5.57
2022-12-08T14:50:41.717Z,6.20
2022-12-08T14:55:48.143Z,5.30
2022-12-08T14:58:20.392Z,6.60
2022-12-08T15:00:52.294Z,6.55
2022-12-08T15:03:23.851Z,4.78
2022-12-08T15:05:54.049Z,7.65
2022-12-08T15:08:23.143Z,6.63
2022-12-08T15:11:26.140Z,5.82
2022-12-08T15:13:55.614Z,7.55
2022-12-08T15:16:27.585Z,5.28
2022-12-08T15:19:05.411Z,6.47
2022-12-08T15:21:39.619Z,5.40
2022-12-08T15:24:12.398Z,8.52
2022-12-08T15:26:45.312Z,6.43
2022-12-08T15:29:21.402Z,5.78
2022-12-08T15:31:52.429Z,5.07
2022-12-08T15:34:22.125Z,6.97
2022-12-08T15:36:52.957Z,6.15
2022-12-08T15:39:33.984Z,5.85
2022-12-08T15:42:07.566Z,5.65
2022-12-08T15:44:36.587Z,5.60
2022-12-08T15:47:05.719Z,6.85
2022-12-08T15:49:34.614Z,6.55
2022-12-08T15:52:11.583Z,7.00
2022-12-08T15:54:40.909Z,6.65
2022-12-08T15:57:33.222Z,7.28
2022-12-08T16:00:58.455Z,10.98
2022-12-08T16:03:59.742Z,9.90
2022-12-08T16:09:14.659Z,8.82
2022-12-08T16:12:06.997Z,7.80
2022-12-08T16:17:33.708Z,8.55
2022-12-08T16:20:03.930Z,8.98
2022-12-08T16:25:23.564Z,28.45
2022-12-08T16:28:17.417Z,6.43
2022-12-08T16:30:45.013Z,6.38
2022-12-08T16:33:14.234Z,6.43
2022-12-08T16:35:44.105Z,8.45
2022-12-08T16:38:15.542Z,7.63
2022-12-08T16:41:00.005Z,7.55
2022-12-08T16:43:28.981Z,7.38
2022-12-08T16:45:59.394Z,6.68
2022-12-08T16:48:28.554Z,7.05
2022-12-08T16:50:57.593Z,6.25
2022-12-08T16:53:26.517Z,7.25
2022-12-08T16:55:55.403Z,8.10
2022-12-08T16:58:24.352Z,7.70
2022-12-08T17:00:53.291Z,5.72
2022-12-08T17:03:23.615Z,7.25
2022-12-08T17:05:52.499Z,7.75
2022-12-08T17:08:21.536Z,9.05
2022-12-08T17:11:07.353Z,8.93
2022-12-08T17:13:37.131Z,9.75
2022-12-08T17:16:09.908Z,8.73
2022-12-08T17:18:40.285Z,10.65
2022-12-08T17:21:13.077Z,8.93
2022-12-08T17:23:43.084Z,10.02
2022-12-08T17:26:12.101Z,9.80
2022-12-08T17:31:34.543Z,9.32
2022-12-08T17:34:10.287Z,9.77
2022-12-08T17:36:39.315Z,8.75
2022-12-08T17:39:14.866Z,8.38
2022-12-08T17:41:47.088Z,9.23
2022-12-08T17:44:18.012Z,9.50
2022-12-08T17:46:52.513Z,9.38
2022-12-08T17:49:26.291Z,8.55
2022-12-08T17:51:57.050Z,8.20
2022-12-08T17:54:27.695Z,9.00
2022-12-08T17:56:58.584Z,8.93
2022-12-08T17:59:28.667Z,8.65
2022-12-08T18:01:58.487Z,9.32
2022-12-08T18:04:29.983Z,7.05
2022-12-08T18:07:01.416Z,7.53
2022-12-08T18:09:31.673Z,11.23
2022-12-08T18:12:00.970Z,8.52
2022-12-08T18:14:29.911Z,10.00
2022-12-08T18:16:58.788Z,9.52
2022-12-08T18:19:29.145Z,12.07
2022-12-08T18:21:58.212Z,8.95
2022-12-08T18:24:27.125Z,9.43
2022-12-08T18:26:57.508Z,10.70
2022-12-08T18:29:26.519Z,19.67
2022-12-08T18:31:55.370Z,12.25
2022-12-08T18:34:24.302Z,13.52
2022-12-08T18:36:54.620Z,9.60
2022-12-08T18:39:25.763Z,10.25
2022-12-08T18:41:55.322Z,9.95
2022-12-08T18:44:24.494Z,9.93
2022-12-08T18:46:53.399Z,12.25
2022-12-08T18:49:22.429Z,13.63
2022-12-08T18:51:51.306Z,17.95
2022-12-08T18:54:27.672Z,13.23
2022-12-08T18:57:06.413Z,16.95
2022-12-08T18:59:35.535Z,12.68
2022-12-08T19:02:06.231Z,9.13
2022-12-08T19:04:38.941Z,11.05
2022-12-08T19:07:08.129Z,11.27
2022-12-08T19:09:38.854Z,11.13
2022-12-08T19:12:08.823Z,11.40
2022-12-08T19:14:37.745Z,14.07
2022-12-08T19:17:06.746Z,11.10
2022-12-08T19:19:36.340Z,11.20
2022-12-08T19:22:05.221Z,12.35
2022-12-08T19:24:36.679Z,12.82
2022-12-08T19:27:07.166Z,15.40
2022-12-08T19:29:36.390Z,13.13
2022-12-08T19:32:05.980Z,12.55
2022-12-08T19:34:34.933Z,11.15
2022-12-08T19:37:03.845Z,14.82
2022-12-08T19:39:50.308Z,13.35
2022-12-08T19:42:39.636Z,10.88
2022-12-08T19:45:11.982Z,16.08
2022-12-08T19:47:42.384Z,16.65
2022-12-08T19:50:31.153Z,18.15
2022-12-08T19:53:00.574Z,14.48
2022-12-08T19:55:30.012Z,15.80
2022-12-08T19:58:02.099Z,16.50
2022-12-08T20:00:32.109Z,15.38
2022-12-08T20:03:02.900Z,12.77
2022-12-08T20:05:33.546Z,10.65
2022-12-08T20:08:02.528Z,11.88
2022-12-08T20:10:36.180Z,13.73
2022-12-08T20:13:24.391Z,10.05
2022-12-08T20:15:54.032Z,11.82
2022-12-08T20:18:23.141Z,14.38
2022-12-08T20:20:52.104Z,12.30
2022-12-08T20:23:21.053Z,15.90
2022-12-08T20:25:49.956Z,12.27
2022-12-08T20:28:20.315Z,10.73
2022-12-08T20:30:49.720Z,10.80
2022-12-08T20:33:19.804Z,11.02
2022-12-08T20:35:50.234Z,13.40
2022-12-08T20:38:20.422Z,13.52
2022-12-08T20:40:49.319Z,14.32
2022-12-08T20:43:18.413Z,17.48
2022-12-08T20:45:48.784Z,19.02
2022-12-08T20:48:17.785Z,15.20
2022-12-08T20:50:51.071Z,20.05
2022-12-08T20:53:20.078Z,13.38
2022-12-08T20:55:48.953Z,12.98
2022-12-08T20:58:17.867Z,12.00
2022-12-08T21:00:48.375Z,12.13
2022-12-08T21:03:18.761Z,11.98
2022-12-08T21:05:51.006Z,20.30
2022-12-08T21:08:20.667Z,21.85
2022-12-08T21:10:54.823Z,14.82
2022-12-08T21:13:23.874Z,13.80
2022-12-08T21:15:54.570Z,12.60
2022-12-08T21:18:25.132Z,13.95
2022-12-08T21:21:02.439Z,12.50
2022-12-08T21:23:32.265Z,15.68
2022-12-08T21:26:01.249Z,16.27
2022-12-08T21:28:30.380Z,18.30
2022-12-08T21:31:00.740Z,23.27
2022-12-08T21:33:30.011Z,16.10
2022-12-08T21:36:03.895Z,14.00
2022-12-08T21:38:33.008Z,10.27
2022-12-08T21:41:06.625Z,13.88
2022-12-08T21:43:36.081Z,11.50
2022-12-08T21:46:06.950Z,10.63
2022-12-08T21:48:36.061Z,13.25
2022-12-08T21:51:06.134Z,10.63
2022-12-08T21:53:35.151Z,14.27
2022-12-08T21:56:08.791Z,11.93
2022-12-08T21:58:39.800Z,14.23
2022-12-08T22:01:11.382Z,18.13
2022-12-08T22:03:41.506Z,15.85
2022-12-08T22:06:13.203Z,9.90
2022-12-08T22:08:42.917Z,10.20
2022-12-08T22:11:12.877Z,13.80
2022-12-08T22:13:42.830Z,14.35
2022-12-08T22:16:15.092Z,17.70
2022-12-08T22:18:44.291Z,13.30
2022-12-08T22:21:15.393Z,10.48
2022-12-08T22:23:45.223Z,11.18
2022-12-08T22:26:14.421Z,15.05
2022-12-08T22:28:44.816Z,10.52
2022-12-08T22:31:17.426Z,10.55
2022-12-08T22:33:46.474Z,10.63
2022-12-08T22:36:17.015Z,11.57
2022-12-08T22:38:45.929Z,10.57
2022-12-08T22:41:15.533Z,10.25
2022-12-08T22:43:45.299Z,9.88
2022-12-08T22:46:17.502Z,10.20
2022-12-08T22:48:46.771Z,10.52
2022-12-08T22:51:16.502Z,12.48
2022-12-08T22:53:45.619Z,12.23
2022-12-08T22:56:16.002Z,9.93
2022-12-08T22:58:45.558Z,11.95
2022-12-08T23:01:25.458Z,8.93
2022-12-08T23:03:55.020Z,10.70
2022-12-08T23:06:25.363Z,13.55
2022-12-08T23:08:57.313Z,11.43
2022-12-08T23:11:28.805Z,12.63
2022-12-08T23:13:59.865Z,10.15
2022-12-08T23:16:30.467Z,10.32
2022-12-08T23:19:00.112Z,10.30
2022-12-08T23:21:30.678Z,10.32
2022-12-08T23:24:01.027Z,10.00
2022-12-08T23:26:32.143Z,9.75
2022-12-08T23:29:02.165Z,10.52
2022-12-08T23:31:32.834Z,9.65
2022-12-08T23:34:03.514Z,9.40
2022-12-08T23:36:32.550Z,11.63
2022-12-08T23:39:02.850Z,7.85
2022-12-08T23:41:31.713Z,10.60
2022-12-08T23:44:00.621Z,10.27
2022-12-08T23:46:29.774Z,9.77
2022-12-08T23:49:00.340Z,8.10
2022-12-08T23:51:29.751Z,9.82
2022-12-08T23:53:58.618Z,12.60
2022-12-08T23:56:30.502Z,10.57
2022-12-08T23:59:02.347Z,11.20
